Ainsworth, Nebraska
Current Conditions -  °F | °C
As of 6:15 AM on Monday 20 Oct 2014 (Local Time) from KANW Reporting Station
Clear Clear  
Wind Chill:   Ceiling: Unl
Heat Index:   Visibility: 10mi
Dew Point:   Wind: 3mph
Humidity: 83%   Direction: 260°W
Pressure: 30.1"   Gusts: NA
Location:  42.55°N, 99.86°W
Report Text: KANW 201115Z AUTO 26003KT 10SM CLR 04/01 A3010 RMK AO2 T00360010
Loading
Personal Weather Stations






























Interactive Weather Map
Tropical Storm Tracking
New forecast layout! Learn more

10-Day Weather Forecast

Advertisements
Track Severe Weather on mobile